Terminal Aerodrome Forecast
Issued by NWS

Home | Current Version | Previous Version | Text Only | Print | Product List | Glossary On
Versions: 1 2 3 4 5 6 7 8 9 10 11 12 13 14 15 16 17 18 19 20 21 22 23 24 25 26 27 28 29 30 31 32 33
000
FTAK31 PANC 171933 AAA
TAFAVD
TAF AMD
PAVD 171933Z 1720/1818 00000KT 6SM -RA FEW001 BKN030 BKN060
      TEMPO 1720/1723 2SM SHRA BR BKN025
     FM172300 VRB05KT 5SM -RA BR OVC030
     FM181200 VRB03KT P6SM VCSH SCT030 BKN045 OVC070
      AMD LTD TO CLD VIS AND WIND=

USA.gov is the U.S. government's official web portal to all federal, state and local government web resources and services.